createdAt,value
2024-01-21T00:00:41.336Z,-2.33
2024-01-21T00:03:10.923Z,-2.21
2024-01-21T00:05:38.977Z,-2.24
2024-01-21T00:08:07.618Z,-2.21
2024-01-21T00:10:35.588Z,-2.18
2024-01-21T00:13:03.506Z,-2.18
2024-01-21T00:15:31.490Z,-2.23
2024-01-21T00:17:59.551Z,-2.31
2024-01-21T00:20:31.826Z,-2.31
2024-01-21T00:22:59.855Z,-2.48
2024-01-21T00:25:27.787Z,-2.50
2024-01-21T00:27:55.776Z,-2.57
2024-01-21T00:30:23.829Z,-2.58
2024-01-21T00:32:52.265Z,-2.69
2024-01-21T00:35:20.473Z,-2.69
2024-01-21T00:37:49.801Z,-2.91
2024-01-21T00:40:17.986Z,-2.98
2024-01-21T00:42:45.946Z,-3.02
2024-01-21T00:45:14.173Z,-2.95
2024-01-21T00:47:42.200Z,-2.89
2024-01-21T00:50:10.751Z,-2.82
2024-01-21T00:52:38.738Z,-2.76
2024-01-21T00:55:08.785Z,-2.69
2024-01-21T00:57:36.813Z,-2.55
2024-01-21T01:00:05.794Z,-2.44
2024-01-21T01:02:34.036Z,-2.40
2024-01-21T01:05:02.134Z,-2.61
2024-01-21T01:07:30.176Z,-2.65
2024-01-21T01:09:58.341Z,-2.52
2024-01-21T01:12:28.124Z,-2.43
2024-01-21T01:14:56.038Z,-2.37
2024-01-21T01:17:23.979Z,-2.31
2024-01-21T01:19:52.030Z,-2.30
2024-01-21T01:22:20.106Z,-2.28
2024-01-21T01:24:48.160Z,-2.24
2024-01-21T01:27:16.221Z,-2.21
2024-01-21T01:29:45.715Z,-2.18
2024-01-21T01:32:13.685Z,-2.18
2024-01-21T01:34:41.684Z,-2.22
2024-01-21T01:37:10.222Z,-2.26
2024-01-21T01:39:38.225Z,-2.33
2024-01-21T01:42:06.675Z,-2.32
2024-01-21T01:44:34.668Z,-2.36
2024-01-21T01:47:04.056Z,-2.41
2024-01-21T01:49:33.095Z,-2.48
2024-01-21T01:52:01.276Z,-2.50
2024-01-21T01:54:31.302Z,-2.54
2024-01-21T01:57:00.306Z,-2.83
2024-01-21T01:59:32.109Z,-3.17
2024-01-21T02:02:00.606Z,-3.27
2024-01-21T02:04:30.478Z,-3.46
2024-01-21T02:06:58.493Z,-4.04
2024-01-21T02:09:26.885Z,-4.01
2024-01-21T02:11:54.867Z,-4.01
2024-01-21T02:14:22.884Z,-3.90
2024-01-21T02:16:50.838Z,-3.70
2024-01-21T02:19:28.432Z,-4.19
2024-01-21T02:21:58.042Z,-4.62
2024-01-21T02:24:31.532Z,-4.43
2024-01-21T02:27:00.317Z,-4.45
2024-01-21T02:29:28.689Z,-4.57
2024-01-21T02:31:59.290Z,-4.22
2024-01-21T02:34:27.338Z,-4.22
2024-01-21T02:36:55.399Z,-4.30
2024-01-21T02:39:23.471Z,-4.28
2024-01-21T02:41:52.754Z,-4.25
2024-01-21T02:44:20.825Z,-4.20
2024-01-21T02:46:48.715Z,-4.09
2024-01-21T02:49:17.956Z,-3.85
2024-01-21T02:51:46.106Z,-3.61
2024-01-21T02:54:14.170Z,-3.47
2024-01-21T02:56:42.204Z,-3.41
2024-01-21T02:59:11.522Z,-3.35
2024-01-21T03:01:39.569Z,-3.39
2024-01-21T03:04:07.601Z,-3.38
2024-01-21T03:06:35.667Z,-3.43
2024-01-21T03:09:04.445Z,-3.42
2024-01-21T03:11:33.539Z,-3.38
2024-01-21T03:14:01.533Z,-3.37
2024-01-21T03:16:30.848Z,-3.37
2024-01-21T03:18:58.786Z,-3.42
2024-01-21T03:21:26.801Z,-3.46
2024-01-21T03:23:54.732Z,-3.46
2024-01-21T03:26:22.646Z,-3.46
2024-01-21T03:28:50.606Z,-3.43
2024-01-21T03:31:19.816Z,-3.39
2024-01-21T03:33:49.321Z,-3.37
2024-01-21T03:36:17.399Z,-3.40
2024-01-21T03:38:46.852Z,-3.46
2024-01-21T03:41:14.898Z,-3.46
2024-01-21T03:43:43.126Z,-3.51
2024-01-21T03:46:11.110Z,-3.55
2024-01-21T03:48:39.265Z,-3.61
2024-01-21T03:51:11.671Z,-3.65
2024-01-21T03:53:40.400Z,-3.73
2024-01-21T03:56:08.688Z,-3.80
2024-01-21T03:58:36.985Z,-3.95
2024-01-21T04:01:05.520Z,-3.99
2024-01-21T04:03:35.137Z,-4.07
2024-01-21T04:06:03.147Z,-4.04
2024-01-21T04:08:32.531Z,-4.04
2024-01-21T04:11:00.503Z,-4.04
2024-01-21T04:13:28.390Z,-4.06
2024-01-21T04:15:56.453Z,-4.01
2024-01-21T04:18:24.484Z,-4.01
2024-01-21T04:20:52.577Z,-4.03
2024-01-21T04:23:20.583Z,-4.02
2024-01-21T04:25:51.212Z,-4.02
2024-01-21T04:28:19.464Z,-4.04
2024-01-21T04:30:47.466Z,-4.15
2024-01-21T04:33:15.531Z,-4.22
2024-01-21T04:35:43.543Z,-4.24
2024-01-21T04:38:11.473Z,-4.26
2024-01-21T04:40:40.226Z,-4.30
2024-01-21T04:43:09.504Z,-4.33
2024-01-21T04:45:37.438Z,-4.41
2024-01-21T04:48:06.270Z,-4.45
2024-01-21T04:50:34.296Z,-4.46
2024-01-21T04:53:02.206Z,-4.47
2024-01-21T04:55:30.261Z,-4.47
2024-01-21T04:57:58.283Z,-4.47
2024-01-21T05:00:27.627Z,-4.46
2024-01-21T05:02:55.605Z,-4.54
2024-01-21T05:05:23.522Z,-4.57
2024-01-21T05:07:52.994Z,-4.59
2024-01-21T05:10:21.132Z,-4.57
2024-01-21T05:12:49.211Z,-4.57
2024-01-21T05:15:17.388Z,-4.61
2024-01-21T05:17:46.745Z,-4.60
2024-01-21T05:20:14.830Z,-4.62
2024-01-21T05:22:42.869Z,-4.59
2024-01-21T05:25:10.917Z,-4.55
2024-01-21T05:27:38.948Z,-4.54
2024-01-21T05:30:08.283Z,-4.52
2024-01-21T05:32:36.315Z,-4.47
2024-01-21T05:35:07.676Z,-4.47
2024-01-21T05:37:35.697Z,-4.54
2024-01-21T05:40:05.405Z,-4.54
2024-01-21T05:42:33.632Z,-4.58
2024-01-21T05:45:01.668Z,-4.65
2024-01-21T05:47:29.643Z,-4.58
2024-01-21T05:49:57.676Z,-4.58
2024-01-21T05:52:27.213Z,-4.57
2024-01-21T05:54:55.254Z,-4.54
2024-01-21T05:57:23.267Z,-4.50
2024-01-21T05:59:51.351Z,-4.46
2024-01-21T06:02:19.488Z,-4.42
2024-01-21T06:04:47.612Z,-4.44
2024-01-21T06:07:15.738Z,-4.38
2024-01-21T06:09:46.833Z,-4.29
2024-01-21T06:12:14.899Z,-4.27
2024-01-21T06:14:42.869Z,-4.23
2024-01-21T06:17:10.920Z,-4.21
2024-01-21T06:19:39.993Z,-4.19
2024-01-21T06:22:07.959Z,-4.20
2024-01-21T06:24:36.815Z,-4.22
2024-01-21T06:27:06.731Z,-4.23
2024-01-21T06:29:34.659Z,-4.22
2024-01-21T06:32:02.634Z,-4.25
2024-01-21T06:34:30.671Z,-4.24
2024-01-21T06:36:58.676Z,-4.22
2024-01-21T06:39:26.632Z,-4.18
2024-01-21T06:41:54.769Z,-4.18
2024-01-21T06:44:24.045Z,-4.13
2024-01-21T06:46:51.973Z,-4.11
2024-01-21T06:49:20.012Z,-4.10
2024-01-21T06:51:54.698Z,-4.12
2024-01-21T06:54:22.960Z,-4.14
2024-01-21T06:56:51.253Z,-4.09
2024-01-21T06:59:19.208Z,-4.07
2024-01-21T07:01:48.548Z,-4.10
2024-01-21T07:04:16.883Z,-4.14
2024-01-21T07:06:45.011Z,-4.16
2024-01-21T07:09:15.091Z,-4.21
2024-01-21T07:11:43.631Z,-4.21
2024-01-21T07:14:11.731Z,-4.30
2024-01-21T07:16:39.705Z,-4.23
2024-01-21T07:19:09.101Z,-3.85
2024-01-21T07:21:37.132Z,-2.56
2024-01-21T07:24:05.559Z,-1.41
2024-01-21T07:26:33.662Z,-0.44
2024-01-21T07:29:01.689Z,0.65
2024-01-21T07:31:29.666Z,1.41
2024-01-21T07:33:57.850Z,1.77
2024-01-21T07:36:27.368Z,2.35
2024-01-21T07:38:55.392Z,3.15
2024-01-21T07:41:23.414Z,3.89
2024-01-21T07:43:51.415Z,4.19
2024-01-21T07:46:19.462Z,4.87
2024-01-21T07:48:47.554Z,5.51
2024-01-21T07:51:16.785Z,6.16
2024-01-21T07:53:46.457Z,6.87
2024-01-21T07:56:14.453Z,7.51
2024-01-21T07:58:42.970Z,8.32
2024-01-21T08:01:13.043Z,8.42
2024-01-21T08:03:42.179Z,8.93
2024-01-21T08:06:11.389Z,9.28
2024-01-21T08:08:39.600Z,9.58
2024-01-21T08:11:08.959Z,10.12
2024-01-21T08:13:37.000Z,10.27
2024-01-21T08:16:05.435Z,10.91
2024-01-21T08:18:37.649Z,12.21
2024-01-21T08:21:06.338Z,13.26
2024-01-21T08:23:35.508Z,14.37
2024-01-21T08:26:05.297Z,15.47
2024-01-21T08:28:34.938Z,16.01
2024-01-21T08:31:04.510Z,16.77
2024-01-21T08:33:32.581Z,16.98
2024-01-21T08:36:00.577Z,17.45
2024-01-21T08:38:28.668Z,18.45
2024-01-21T08:40:56.733Z,18.82
2024-01-21T08:43:24.795Z,19.34
2024-01-21T08:45:54.781Z,19.27
2024-01-21T08:48:23.836Z,18.89
2024-01-21T08:50:52.304Z,17.70
2024-01-21T08:53:22.013Z,17.09
2024-01-21T08:55:50.032Z,16.14
2024-01-21T08:58:18.112Z,15.98
2024-01-21T09:00:46.251Z,16.09
2024-01-21T09:03:15.943Z,16.36
2024-01-21T09:05:44.192Z,16.31
2024-01-21T09:08:12.398Z,16.57
2024-01-21T09:10:40.291Z,16.63
2024-01-21T09:13:09.538Z,16.97
2024-01-21T09:15:37.710Z,16.01
2024-01-21T09:18:06.326Z,16.10
2024-01-21T09:20:35.692Z,16.25
2024-01-21T09:23:03.720Z,15.80
2024-01-21T09:25:31.798Z,15.22
2024-01-21T09:27:59.919Z,14.65
2024-01-21T09:30:28.282Z,14.48
2024-01-21T09:32:56.346Z,14.61
2024-01-21T09:35:24.579Z,14.47
2024-01-21T09:37:54.001Z,13.67
2024-01-21T09:40:22.737Z,12.67
2024-01-21T09:42:51.964Z,13.21
2024-01-21T09:45:23.722Z,13.82
2024-01-21T09:47:55.319Z,13.46
2024-01-21T09:50:25.613Z,13.72
2024-01-21T09:52:56.846Z,14.06
2024-01-21T09:55:24.963Z,13.61
2024-01-21T09:57:55.436Z,13.99
2024-01-21T10:00:23.985Z,13.42
2024-01-21T10:02:53.311Z,12.51
2024-01-21T10:05:21.881Z,12.65
2024-01-21T10:07:52.234Z,12.23
2024-01-21T10:10:21.581Z,12.21
2024-01-21T10:12:49.849Z,12.89
2024-01-21T10:15:19.230Z,12.92
2024-01-21T10:17:47.354Z,12.50
2024-01-21T10:20:15.624Z,13.20
2024-01-21T10:22:45.519Z,13.84
2024-01-21T10:25:15.498Z,14.27
2024-01-21T10:27:47.278Z,13.97
2024-01-21T10:30:15.790Z,13.82
2024-01-21T10:32:45.314Z,14.91
2024-01-21T10:35:13.652Z,15.30
2024-01-21T10:37:42.599Z,15.39
2024-01-21T10:40:11.688Z,16.42
2024-01-21T10:42:42.032Z,17.18
2024-01-21T10:45:12.571Z,17.25
2024-01-21T10:47:43.134Z,17.44
2024-01-21T10:50:12.689Z,16.44
2024-01-21T10:52:45.691Z,15.51
2024-01-21T10:55:14.186Z,14.29
2024-01-21T10:57:44.028Z,14.21
2024-01-21T11:00:16.141Z,13.69
2024-01-21T11:03:04.260Z,12.65
2024-01-21T11:05:32.399Z,11.74
2024-01-21T11:08:03.153Z,11.69
2024-01-21T11:10:31.701Z,11.49
2024-01-21T11:12:59.726Z,11.38
2024-01-21T11:15:32.257Z,10.87
2024-01-21T11:18:12.936Z,10.75
2024-01-21T11:20:41.389Z,10.63
2024-01-21T11:23:18.139Z,10.59
2024-01-21T11:25:52.449Z,10.44
2024-01-21T11:28:31.185Z,9.93
2024-01-21T11:31:05.114Z,9.30
2024-01-21T11:33:33.390Z,9.05
2024-01-21T11:36:02.153Z,8.84
2024-01-21T11:38:30.529Z,8.91
2024-01-21T11:41:04.973Z,8.92
2024-01-21T11:43:35.872Z,8.76
2024-01-21T11:46:06.770Z,8.54
2024-01-21T11:48:34.808Z,8.26
2024-01-21T11:51:02.739Z,7.62
2024-01-21T11:53:30.694Z,7.77
2024-01-21T11:55:58.740Z,7.96
2024-01-21T11:58:26.783Z,7.96
2024-01-21T12:00:55.121Z,7.96
2024-01-21T12:03:24.618Z,8.07
2024-01-21T12:05:53.108Z,7.98
2024-01-21T12:08:21.594Z,8.03
2024-01-21T12:10:50.563Z,7.99
2024-01-21T12:13:18.548Z,7.46
2024-01-21T12:15:51.258Z,7.31
2024-01-21T12:18:19.525Z,7.30
2024-01-21T12:20:49.272Z,7.50
2024-01-21T12:23:20.862Z,7.61
2024-01-21T12:25:50.321Z,7.74
2024-01-21T12:28:19.871Z,7.71
2024-01-21T12:30:49.054Z,7.76
2024-01-21T12:33:17.552Z,7.70
2024-01-21T12:35:45.540Z,7.72
2024-01-21T12:38:16.205Z,7.78
2024-01-21T12:40:45.454Z,7.63
2024-01-21T12:43:17.391Z,7.76
2024-01-21T12:45:45.582Z,7.80
2024-01-21T12:48:14.332Z,7.85
2024-01-21T12:50:43.912Z,7.88
2024-01-21T12:53:11.861Z,7.77
2024-01-21T12:55:41.351Z,7.92
2024-01-21T12:58:11.317Z,7.95
2024-01-21T13:00:40.836Z,8.16
2024-01-21T13:03:09.071Z,8.24
2024-01-21T13:05:37.151Z,8.20
2024-01-21T13:08:07.563Z,8.21
2024-01-21T13:10:35.684Z,8.07
2024-01-21T13:13:05.321Z,8.04
2024-01-21T13:15:33.368Z,8.07
2024-01-21T13:18:01.915Z,8.18
2024-01-21T13:20:30.128Z,8.24
2024-01-21T13:22:58.060Z,8.31
2024-01-21T13:25:26.071Z,8.31
2024-01-21T13:28:07.622Z,8.34
2024-01-21T13:30:45.190Z,8.43
2024-01-21T13:33:14.971Z,8.51
2024-01-21T13:35:44.780Z,8.45
2024-01-21T13:38:16.499Z,8.48
2024-01-21T13:40:44.927Z,8.73
2024-01-21T13:43:12.920Z,8.82
2024-01-21T13:45:42.360Z,8.86
2024-01-21T13:48:12.059Z,8.79
2024-01-21T13:50:44.238Z,8.56
2024-01-21T13:53:15.468Z,8.51
2024-01-21T13:55:44.408Z,8.51
2024-01-21T13:58:13.789Z,8.46
2024-01-21T14:00:43.124Z,8.42
2024-01-21T14:03:11.377Z,8.59
2024-01-21T14:05:40.239Z,8.89
2024-01-21T14:08:08.667Z,9.00
2024-01-21T14:10:36.711Z,9.03
2024-01-21T14:13:05.159Z,8.99
2024-01-21T14:15:33.216Z,9.00
2024-01-21T14:18:05.687Z,9.00
2024-01-21T14:20:33.712Z,8.98
2024-01-21T14:23:02.120Z,8.97
2024-01-21T14:25:38.209Z,8.97
2024-01-21T14:28:06.906Z,8.89
2024-01-21T14:30:36.703Z,8.83
2024-01-21T14:33:06.541Z,8.82
2024-01-21T14:35:35.141Z,8.78
2024-01-21T14:38:03.698Z,8.69
2024-01-21T14:40:31.852Z,8.64
2024-01-21T14:43:00.131Z,8.60
2024-01-21T14:45:28.447Z,8.55
2024-01-21T14:47:56.858Z,8.48
2024-01-21T14:50:26.527Z,8.44
2024-01-21T14:52:54.634Z,8.38
2024-01-21T14:55:22.622Z,8.30
2024-01-21T14:57:51.109Z,8.24
2024-01-21T15:00:19.929Z,8.17
2024-01-21T15:02:48.096Z,8.10
2024-01-21T15:05:16.301Z,8.05
2024-01-21T15:07:48.914Z,7.99
2024-01-21T15:10:17.601Z,8.03
2024-01-21T15:12:46.596Z,7.96
2024-01-21T15:15:27.539Z,7.92
2024-01-21T15:17:56.120Z,7.85
2024-01-21T15:20:25.179Z,7.86
2024-01-21T15:22:54.608Z,7.84
2024-01-21T15:25:22.582Z,7.81
2024-01-21T15:27:50.684Z,7.68
2024-01-21T15:30:19.055Z,7.55
2024-01-21T15:32:47.440Z,7.52
2024-01-21T15:35:15.680Z,7.51
2024-01-21T15:37:43.704Z,7.39
2024-01-21T15:40:13.598Z,7.27
2024-01-21T15:42:42.640Z,7.23
2024-01-21T15:45:11.867Z,7.10
2024-01-21T15:47:40.200Z,6.96
2024-01-21T15:50:09.482Z,6.79
2024-01-21T15:52:38.024Z,6.75
2024-01-21T15:55:07.151Z,6.73
2024-01-21T15:57:36.573Z,6.65
2024-01-21T16:00:05.461Z,6.56
2024-01-21T16:02:35.328Z,6.47
2024-01-21T16:05:03.913Z,6.27
2024-01-21T16:07:32.107Z,6.17
2024-01-21T16:10:00.419Z,6.07
2024-01-21T16:12:30.294Z,5.94
2024-01-21T16:14:59.801Z,5.88
2024-01-21T16:17:27.862Z,5.77
2024-01-21T16:19:55.935Z,5.67
2024-01-21T16:22:24.314Z,5.59
2024-01-21T16:24:53.029Z,5.34
2024-01-21T16:27:26.963Z,5.12
2024-01-21T16:30:02.607Z,5.08
2024-01-21T16:32:31.012Z,5.12
2024-01-21T16:35:01.505Z,5.13
2024-01-21T16:37:30.647Z,5.08
2024-01-21T16:39:59.567Z,5.02
2024-01-21T16:42:27.832Z,4.98
2024-01-21T16:44:56.001Z,4.95
2024-01-21T16:47:25.388Z,4.86
2024-01-21T16:49:53.528Z,4.72
2024-01-21T16:52:28.394Z,4.56
2024-01-21T16:54:56.501Z,4.48
2024-01-21T16:57:25.041Z,4.37
2024-01-21T17:00:04.613Z,4.25
2024-01-21T17:02:34.356Z,4.03
2024-01-21T17:05:02.601Z,4.07
2024-01-21T17:07:31.217Z,3.98
2024-01-21T17:10:00.553Z,3.91
2024-01-21T17:12:37.410Z,3.74
2024-01-21T17:15:06.209Z,3.79
2024-01-21T17:17:35.941Z,3.75
2024-01-21T17:20:06.104Z,3.67
2024-01-21T17:22:34.117Z,3.67
2024-01-21T17:25:02.132Z,3.69
2024-01-21T17:27:33.471Z,3.64
2024-01-21T17:30:01.712Z,3.58
2024-01-21T17:32:29.997Z,3.56
2024-01-21T17:34:59.452Z,3.52
2024-01-21T17:37:27.552Z,3.50
2024-01-21T17:39:55.686Z,3.41
2024-01-21T17:42:23.668Z,3.32
2024-01-21T17:44:53.171Z,3.22
2024-01-21T17:47:22.229Z,3.15
2024-01-21T17:49:50.354Z,2.83
2024-01-21T17:52:19.736Z,2.72
2024-01-21T17:54:47.750Z,2.55
2024-01-21T17:57:15.887Z,2.27
2024-01-21T17:59:43.918Z,2.15
2024-01-21T18:02:12.416Z,2.38
2024-01-21T18:04:40.482Z,2.54
2024-01-21T18:07:08.553Z,2.63
2024-01-21T18:09:37.977Z,2.72
2024-01-21T18:12:09.935Z,2.96
2024-01-21T18:14:39.003Z,3.23
2024-01-21T18:17:07.133Z,3.32
2024-01-21T18:19:39.280Z,3.47
2024-01-21T18:22:12.935Z,3.56
2024-01-21T18:24:43.606Z,3.59
2024-01-21T18:27:11.727Z,3.55
2024-01-21T18:29:39.860Z,3.51
2024-01-21T18:32:08.758Z,3.60
2024-01-21T18:34:37.215Z,3.68
2024-01-21T18:37:06.079Z,3.76
2024-01-21T18:39:35.170Z,3.77
2024-01-21T18:42:04.813Z,3.78
2024-01-21T18:44:33.142Z,3.83
2024-01-21T18:47:01.565Z,3.85
2024-01-21T18:49:31.072Z,3.84
2024-01-21T18:52:04.520Z,3.81
2024-01-21T18:54:34.786Z,3.80
2024-01-21T18:57:06.244Z,3.74
2024-01-21T18:59:34.395Z,3.69
2024-01-21T19:02:02.483Z,3.61
2024-01-21T19:04:35.670Z,3.66
2024-01-21T19:07:09.638Z,3.60
2024-01-21T19:09:37.916Z,3.50
2024-01-21T19:12:09.044Z,3.40
2024-01-21T19:14:37.933Z,3.39
2024-01-21T19:17:06.095Z,3.38
2024-01-21T19:19:34.380Z,3.46
2024-01-21T19:22:02.562Z,3.53
2024-01-21T19:24:30.686Z,3.61
2024-01-21T19:26:58.749Z,3.69
2024-01-21T19:29:28.241Z,3.75
2024-01-21T19:31:56.548Z,3.83
2024-01-21T19:34:24.758Z,3.87
2024-01-21T19:36:55.575Z,3.90
2024-01-21T19:39:24.153Z,3.91
2024-01-21T19:41:52.418Z,3.92
2024-01-21T19:44:20.561Z,3.92
2024-01-21T19:46:50.062Z,3.81
2024-01-21T19:49:18.182Z,3.71
2024-01-21T19:51:46.921Z,3.58
2024-01-21T19:54:17.735Z,3.54
2024-01-21T19:56:46.609Z,3.59
2024-01-21T19:59:15.082Z,3.60
2024-01-21T20:01:45.233Z,3.55
2024-01-21T20:04:15.805Z,3.40
2024-01-21T20:06:44.537Z,3.31
2024-01-21T20:09:13.364Z,3.26
2024-01-21T20:11:42.555Z,3.18
2024-01-21T20:14:10.853Z,3.08
2024-01-21T20:16:40.057Z,3.00
2024-01-21T20:19:08.585Z,2.96
2024-01-21T20:21:38.712Z,3.07
2024-01-21T20:24:07.656Z,3.11
2024-01-21T20:26:36.075Z,3.15
2024-01-21T20:29:04.267Z,3.21
2024-01-21T20:31:32.306Z,3.19
2024-01-21T20:34:00.776Z,3.16
2024-01-21T20:36:28.934Z,3.17
2024-01-21T20:38:58.329Z,3.16
2024-01-21T20:41:26.436Z,3.10
2024-01-21T20:43:54.526Z,3.04
2024-01-21T20:46:23.422Z,3.00
2024-01-21T20:48:51.738Z,2.98
2024-01-21T20:51:19.858Z,2.97
2024-01-21T20:53:50.126Z,2.95
2024-01-21T20:56:21.520Z,2.92
2024-01-21T20:58:49.898Z,2.86
2024-01-21T21:01:18.358Z,2.77
2024-01-21T21:03:46.495Z,2.79
2024-01-21T21:06:14.613Z,2.77
2024-01-21T21:08:44.433Z,2.73
2024-01-21T21:11:13.131Z,2.76
2024-01-21T21:13:43.040Z,2.77
2024-01-21T21:16:11.705Z,2.80
2024-01-21T21:18:39.891Z,2.84
2024-01-21T21:21:08.039Z,2.83
2024-01-21T21:23:36.059Z,2.80
2024-01-21T21:26:04.056Z,2.89
2024-01-21T21:28:32.075Z,2.99
2024-01-21T21:31:01.422Z,3.05
2024-01-21T21:33:29.475Z,3.08
2024-01-21T21:35:58.407Z,3.07
2024-01-21T21:38:26.608Z,3.05
2024-01-21T21:40:54.638Z,3.04
2024-01-21T21:43:22.625Z,3.05
2024-01-21T21:45:51.694Z,3.06
2024-01-21T21:48:21.482Z,3.07
2024-01-21T21:50:50.004Z,3.08
2024-01-21T21:53:18.371Z,3.06
2024-01-21T21:55:48.037Z,3.09
2024-01-21T21:58:16.256Z,3.12
2024-01-21T22:00:44.590Z,3.15
2024-01-21T22:03:13.026Z,3.21
2024-01-21T22:05:42.719Z,3.19
2024-01-21T22:08:11.109Z,3.01
2024-01-21T22:10:39.191Z,2.79
2024-01-21T22:13:07.601Z,2.68
2024-01-21T22:15:36.935Z,2.63
2024-01-21T22:18:05.100Z,2.62
2024-01-21T22:20:33.193Z,2.56
2024-01-21T22:23:03.115Z,2.48
2024-01-21T22:25:31.169Z,2.29
2024-01-21T22:27:59.100Z,2.19
2024-01-21T22:30:27.730Z,1.81
2024-01-21T22:32:56.494Z,1.65
2024-01-21T22:35:24.693Z,1.42
2024-01-21T22:37:52.754Z,1.02
2024-01-21T22:40:22.123Z,0.98
2024-01-21T22:42:50.114Z,0.78
2024-01-21T22:45:18.380Z,0.89
2024-01-21T22:47:47.396Z,1.06
2024-01-21T22:50:16.185Z,1.27
2024-01-21T22:52:44.235Z,1.35
2024-01-21T22:55:13.536Z,1.53
2024-01-21T22:57:42.891Z,1.63
2024-01-21T23:00:15.846Z,1.81
2024-01-21T23:02:43.959Z,1.76
2024-01-21T23:05:12.701Z,1.76
2024-01-21T23:07:40.718Z,1.83
2024-01-21T23:10:09.798Z,1.92
2024-01-21T23:12:37.753Z,2.18
2024-01-21T23:15:08.405Z,2.35
2024-01-21T23:17:36.539Z,2.47
2024-01-21T23:20:05.381Z,2.63
2024-01-21T23:22:33.816Z,2.66
2024-01-21T23:25:01.750Z,2.64
2024-01-21T23:27:29.812Z,2.54
2024-01-21T23:29:57.806Z,2.43
2024-01-21T23:32:27.227Z,2.34
2024-01-21T23:34:55.205Z,2.31
2024-01-21T23:37:24.195Z,2.27
2024-01-21T23:39:52.163Z,2.17
2024-01-21T23:42:20.169Z,2.11
2024-01-21T23:44:48.163Z,2.04
2024-01-21T23:47:16.176Z,2.02
2024-01-21T23:49:45.611Z,2.00
2024-01-21T23:52:13.736Z,1.98
2024-01-21T23:54:42.774Z,2.00
2024-01-21T23:57:11.056Z,1.92
2024-01-21T23:59:39.476Z,1.88
